RYR6192 LEAL-EDNY
Flight info
| Callsign | RYR6192 |
|---|---|
| Flight time | N/A |
| Altitude | 38000 |
| Route | MITOS N851 PTC Z238 CDP DCT CHELY N853 LUMAS DCT UNANA DCT STP DCT RAPED DCT PIGOS DCT EKSID DCT NOSTA DCT NOPMU DCT ABESI N851 UTAVO DCT SOPER N851 ROLSA ROLSA1F |
| Aircraft | B38M/M-SADE3FGILRWY/SB1 |
Departure
| Time | N/A |
|---|---|
| Airport | Alicante-Elche Miguel Hernández Airport (LEAL) |
Arrival
| Time | 2026-04-25 14:55 |
|---|---|
| Airport | Bodensee Airport Friedrichshafen (EDNY) |
| Time | Latitude | Longitude | Altitude | Speed | Heading |
|---|---|---|---|---|---|
| 2026-04-25 13:31 | 40.58065 | 4.11529 | 38149 ft | 450 kts | 30° |
| 2026-04-25 13:31 | 40.60759 | 4.13636 | 38147 ft | 450 kts | 30° |
| 2026-04-25 13:32 | 40.66140 | 4.17849 | 38142 ft | 450 kts | 31° |
| 2026-04-25 13:32 | 40.71530 | 4.22076 | 38149 ft | 449 kts | 30° |
| 2026-04-25 13:33 | 40.76893 | 4.26290 | 38148 ft | 448 kts | 30° |
| 2026-04-25 13:33 | 40.82255 | 4.30512 | 38143 ft | 449 kts | 30° |
| 2026-04-25 13:34 | 40.87620 | 4.34745 | 38142 ft | 448 kts | 30° |
| 2026-04-25 13:34 | 40.92947 | 4.38954 | 38145 ft | 449 kts | 30° |
| 2026-04-25 13:35 | 40.98304 | 4.43194 | 38143 ft | 448 kts | 30° |
| 2026-04-25 13:35 | 41.03658 | 4.47440 | 38139 ft | 448 kts | 30° |
| 2026-04-25 13:36 | 41.09290 | 4.50776 | 38144 ft | 444 kts | 10° |
| 2026-04-25 13:36 | 41.15383 | 4.52368 | 38121 ft | 447 kts | 10° |
| 2026-04-25 13:37 | 41.21504 | 4.53907 | 38142 ft | 447 kts | 10° |
| 2026-04-25 13:37 | 41.27619 | 4.55406 | 38139 ft | 447 kts | 9° |
| 2026-04-25 13:38 | 41.33749 | 4.56907 | 38139 ft | 447 kts | 9° |
| 2026-04-25 13:38 | 41.39871 | 4.58409 | 38136 ft | 447 kts | 9° |
| 2026-04-25 13:39 | 41.45953 | 4.59904 | 38140 ft | 447 kts | 9° |
| 2026-04-25 13:39 | 41.52066 | 4.61409 | 38145 ft | 447 kts | 9° |
| 2026-04-25 13:40 | 41.58186 | 4.62920 | 38147 ft | 447 kts | 9° |
| 2026-04-25 13:40 | 41.64321 | 4.64436 | 38138 ft | 447 kts | 9° |
| 2026-04-25 13:41 | 41.70422 | 4.66002 | 38123 ft | 448 kts | 15° |
| 2026-04-25 13:41 | 41.73292 | 4.67595 | 38114 ft | 446 kts | 32° |
| 2026-04-25 13:41 | 41.75738 | 4.70156 | 38158 ft | 447 kts | 43° |
| 2026-04-25 13:42 | 41.80277 | 4.75902 | 38126 ft | 450 kts | 44° |
| 2026-04-25 13:42 | 41.84765 | 4.81767 | 38121 ft | 450 kts | 44° |
| 2026-04-25 13:43 | 41.89227 | 4.87668 | 38121 ft | 450 kts | 44° |
| 2026-04-25 13:43 | 41.93684 | 4.93582 | 38132 ft | 451 kts | 44° |
| 2026-04-25 13:44 | 41.98139 | 4.99503 | 38129 ft | 450 kts | 44° |
| 2026-04-25 13:44 | 42.02584 | 5.05426 | 38133 ft | 450 kts | 44° |
| 2026-04-25 13:45 | 42.07027 | 5.11357 | 38138 ft | 450 kts | 44° |
| 2026-04-25 13:45 | 42.11470 | 5.17301 | 38133 ft | 450 kts | 44° |
| 2026-04-25 13:46 | 42.15872 | 5.23203 | 38134 ft | 449 kts | 44° |
| 2026-04-25 13:46 | 42.20301 | 5.29154 | 38138 ft | 449 kts | 44° |
| 2026-04-25 13:47 | 42.24731 | 5.35118 | 38125 ft | 450 kts | 44° |
| 2026-04-25 13:47 | 42.29166 | 5.41100 | 38117 ft | 450 kts | 44° |
| 2026-04-25 13:48 | 42.33591 | 5.47082 | 38117 ft | 450 kts | 44° |
| 2026-04-25 13:48 | 42.38019 | 5.53082 | 38118 ft | 450 kts | 44° |
| 2026-04-25 13:49 | 42.42437 | 5.59081 | 38116 ft | 450 kts | 44° |
| 2026-04-25 13:49 | 42.46855 | 5.65091 | 38117 ft | 450 kts | 44° |
| 2026-04-25 13:50 | 42.51269 | 5.71109 | 38118 ft | 450 kts | 44° |
| 2026-04-25 13:50 | 42.55664 | 5.77115 | 38106 ft | 452 kts | 44° |
| 2026-04-25 13:51 | 42.60100 | 5.83187 | 38106 ft | 452 kts | 44° |
| 2026-04-25 13:51 | 42.64533 | 5.89270 | 38106 ft | 453 kts | 44° |
| 2026-04-25 13:52 | 42.68958 | 5.95356 | 38102 ft | 452 kts | 44° |
| 2026-04-25 13:52 | 42.73377 | 6.01445 | 38096 ft | 453 kts | 44° |
| 2026-04-25 13:53 | 42.77806 | 6.07560 | 38088 ft | 453 kts | 45° |
| 2026-04-25 13:53 | 42.82230 | 6.13680 | 38082 ft | 454 kts | 45° |
| 2026-04-25 13:54 | 42.86800 | 6.19628 | 38099 ft | 454 kts | 39° |
| 2026-04-25 13:54 | 42.91594 | 6.25159 | 38064 ft | 455 kts | 38° |
| 2026-04-25 13:55 | 42.96441 | 6.30722 | 38075 ft | 455 kts | 39° |
| 2026-04-25 13:55 | 43.01278 | 6.36282 | 38074 ft | 455 kts | 39° |
| 2026-04-25 13:56 | 43.06121 | 6.41861 | 38079 ft | 455 kts | 39° |
| 2026-04-25 13:56 | 43.10953 | 6.47441 | 38068 ft | 454 kts | 39° |
| 2026-04-25 13:57 | 43.15766 | 6.53010 | 38065 ft | 457 kts | 39° |
| 2026-04-25 13:57 | 43.20615 | 6.58635 | 38080 ft | 457 kts | 40° |
| 2026-04-25 13:57 | 43.22797 | 6.61854 | 38053 ft | 455 kts | 54° |
| 2026-04-25 13:58 | 43.24610 | 6.65352 | 38075 ft | 457 kts | 52° |
| 2026-04-25 13:58 | 43.28374 | 6.72338 | 38088 ft | 455 kts | 53° |
| 2026-04-25 13:59 | 43.32101 | 6.79385 | 38088 ft | 456 kts | 53° |
| 2026-04-25 13:59 | 43.35813 | 6.86439 | 38100 ft | 456 kts | 53° |
| 2026-04-25 14:00 | 43.39545 | 6.93548 | 38103 ft | 458 kts | 53° |
| 2026-04-25 14:00 | 43.43270 | 7.00657 | 38110 ft | 457 kts | 53° |
| 2026-04-25 14:01 | 43.46972 | 7.07743 | 38102 ft | 454 kts | 53° |
| 2026-04-25 14:01 | 43.50636 | 7.14771 | 38100 ft | 455 kts | 53° |
| 2026-04-25 14:02 | 43.54322 | 7.21857 | 38099 ft | 455 kts | 53° |
| 2026-04-25 14:02 | 43.58007 | 7.28959 | 38097 ft | 455 kts | 53° |
| 2026-04-25 14:03 | 43.61063 | 7.34860 | 38103 ft | 454 kts | 53° |
| 2026-04-25 14:03 | 43.64730 | 7.41963 | 38100 ft | 454 kts | 53° |
| 2026-04-25 14:04 | 43.68387 | 7.49060 | 38098 ft | 454 kts | 53° |
| 2026-04-25 14:04 | 43.72047 | 7.56180 | 38091 ft | 454 kts | 53° |
| 2026-04-25 14:05 | 43.75700 | 7.63305 | 38092 ft | 456 kts | 54° |
| 2026-04-25 14:05 | 43.79370 | 7.70483 | 38094 ft | 457 kts | 53° |
| 2026-04-25 14:06 | 43.83492 | 7.77061 | 38084 ft | 450 kts | 35° |
| 2026-04-25 14:06 | 43.88443 | 7.82450 | 38056 ft | 453 kts | 37° |
| 2026-04-25 14:07 | 43.93415 | 7.87830 | 38105 ft | 454 kts | 35° |
| 2026-04-25 14:07 | 43.96122 | 7.90022 | 38079 ft | 447 kts | 19° |
| 2026-04-25 14:07 | 43.99037 | 7.91516 | 38100 ft | 448 kts | 19° |
| 2026-04-25 14:08 | 44.04874 | 7.94523 | 38101 ft | 448 kts | 18° |
| 2026-04-25 14:08 | 44.10739 | 7.97472 | 38095 ft | 448 kts | 18° |
| 2026-04-25 14:09 | 44.16622 | 8.00423 | 38124 ft | 449 kts | 18° |
| 2026-04-25 14:09 | 44.22484 | 8.03368 | 38091 ft | 448 kts | 18° |
| 2026-04-25 14:10 | 44.28308 | 8.06301 | 38079 ft | 448 kts | 18° |
| 2026-04-25 14:10 | 44.34165 | 8.09257 | 38069 ft | 448 kts | 18° |
| 2026-04-25 14:11 | 44.40034 | 8.12225 | 38055 ft | 447 kts | 18° |
| 2026-04-25 14:11 | 44.45887 | 8.15192 | 38055 ft | 447 kts | 18° |
| 2026-04-25 14:12 | 44.51738 | 8.18163 | 38032 ft | 447 kts | 17° |
| 2026-04-25 14:12 | 44.57589 | 8.21141 | 38051 ft | 448 kts | 18° |
| 2026-04-25 14:13 | 44.63436 | 8.24123 | 38047 ft | 447 kts | 18° |
| 2026-04-25 14:13 | 44.69255 | 8.27098 | 38049 ft | 447 kts | 18° |
| 2026-04-25 14:14 | 44.75107 | 8.30095 | 38042 ft | 447 kts | 17° |
| 2026-04-25 14:14 | 44.80960 | 8.33100 | 38039 ft | 447 kts | 17° |
| 2026-04-25 14:15 | 44.86810 | 8.36110 | 38036 ft | 447 kts | 17° |
| 2026-04-25 14:15 | 44.92659 | 8.39126 | 38027 ft | 446 kts | 17° |
| 2026-04-25 14:16 | 44.98447 | 8.42116 | 38032 ft | 446 kts | 17° |
| 2026-04-25 14:16 | 45.04273 | 8.45134 | 38032 ft | 446 kts | 17° |
| 2026-04-25 14:17 | 45.10114 | 8.48164 | 38037 ft | 446 kts | 17° |
| 2026-04-25 14:17 | 45.15931 | 8.51190 | 38022 ft | 446 kts | 17° |
| 2026-04-25 14:18 | 45.21758 | 8.54227 | 38020 ft | 446 kts | 17° |
| 2026-04-25 14:18 | 45.27577 | 8.57267 | 38032 ft | 445 kts | 17° |
| 2026-04-25 14:19 | 45.33343 | 8.60285 | 38021 ft | 444 kts | 17° |
| 2026-04-25 14:19 | 45.39181 | 8.63348 | 38021 ft | 444 kts | 17° |
| 2026-04-25 14:20 | 45.44982 | 8.66398 | 38034 ft | 444 kts | 17° |
| 2026-04-25 14:20 | 45.50785 | 8.69456 | 38022 ft | 445 kts | 17° |
| 2026-04-25 14:21 | 45.56596 | 8.72525 | 38023 ft | 445 kts | 17° |
| 2026-04-25 14:21 | 45.62370 | 8.75581 | 38021 ft | 445 kts | 17° |
| 2026-04-25 14:22 | 45.68185 | 8.78666 | 38022 ft | 446 kts | 17° |
| 2026-04-25 14:22 | 45.74003 | 8.81759 | 38011 ft | 446 kts | 17° |
| 2026-04-25 14:23 | 45.79810 | 8.84853 | 38001 ft | 446 kts | 17° |
| 2026-04-25 14:23 | 45.85623 | 8.87958 | 38002 ft | 445 kts | 17° |
| 2026-04-25 14:24 | 45.91425 | 8.91062 | 37993 ft | 445 kts | 17° |
| 2026-04-25 14:24 | 45.97234 | 8.94177 | 38016 ft | 445 kts | 17° |
| 2026-04-25 14:25 | 46.03050 | 8.97303 | 38001 ft | 445 kts | 17° |
| 2026-04-25 14:25 | 46.08859 | 9.00431 | 37984 ft | 446 kts | 17° |
| 2026-04-25 14:26 | 46.14698 | 9.03409 | 37981 ft | 441 kts | 7° |
| 2026-04-25 14:26 | 46.17676 | 9.03747 | 37998 ft | 432 kts | 353° |
| 2026-04-25 14:26 | 46.20685 | 9.03477 | 37977 ft | 434 kts | 353° |
| 2026-04-25 14:27 | 46.26660 | 9.02816 | 38010 ft | 428 kts | 351° |
| 2026-04-25 14:27 | 46.32588 | 9.02054 | 38019 ft | 427 kts | 351° |
| 2026-04-25 14:28 | 46.38506 | 9.01260 | 37876 ft | 427 kts | 351° |
| 2026-04-25 14:28 | 46.41480 | 9.00860 | 36966 ft | 432 kts | 351° |
| 2026-04-25 14:28 | 46.44494 | 9.00456 | 35917 ft | 438 kts | 351° |
| 2026-04-25 14:28 | 46.47539 | 9.00047 | 35069 ft | 441 kts | 351° |
| 2026-04-25 14:29 | 46.50568 | 8.99642 | 34585 ft | 432 kts | 351° |
| 2026-04-25 14:29 | 46.53526 | 8.99244 | 34083 ft | 422 kts | 351° |
| 2026-04-25 14:29 | 46.56413 | 8.98855 | 33528 ft | 411 kts | 351° |
| 2026-04-25 14:29 | 46.59223 | 8.98477 | 32840 ft | 401 kts | 351° |
| 2026-04-25 14:30 | 46.61972 | 8.98103 | 32128 ft | 393 kts | 351° |
| 2026-04-25 14:30 | 46.67320 | 8.97382 | 30861 ft | 379 kts | 352° |
| 2026-04-25 14:30 | 46.69927 | 8.97030 | 30212 ft | 373 kts | 353° |
| 2026-04-25 14:31 | 46.72479 | 8.96684 | 29678 ft | 363 kts | 353° |
| 2026-04-25 14:31 | 46.74951 | 8.96348 | 29256 ft | 350 kts | 353° |
| 2026-04-25 14:31 | 46.77338 | 8.96025 | 28908 ft | 337 kts | 353° |
| 2026-04-25 14:31 | 46.79618 | 8.95715 | 28560 ft | 330 kts | 353° |
| 2026-04-25 14:32 | 46.81887 | 8.95407 | 28260 ft | 328 kts | 353° |
| 2026-04-25 14:32 | 46.84171 | 8.95096 | 27877 ft | 332 kts | 354° |
| 2026-04-25 14:32 | 46.86490 | 8.94780 | 27495 ft | 334 kts | 354° |
| 2026-04-25 14:32 | 46.88799 | 8.94464 | 27132 ft | 333 kts | 354° |
| 2026-04-25 14:33 | 46.91105 | 8.94147 | 26750 ft | 332 kts | 354° |
| 2026-04-25 14:33 | 46.93391 | 8.93834 | 26418 ft | 330 kts | 354° |
| 2026-04-25 14:33 | 46.95677 | 8.93520 | 26070 ft | 327 kts | 354° |
| 2026-04-25 14:33 | 46.97928 | 8.93210 | 25759 ft | 324 kts | 354° |
| 2026-04-25 14:34 | 47.00164 | 8.92902 | 25414 ft | 321 kts | 354° |
| 2026-04-25 14:34 | 47.02376 | 8.92598 | 25086 ft | 319 kts | 354° |
| 2026-04-25 14:34 | 47.04581 | 8.92293 | 24760 ft | 316 kts | 354° |
| 2026-04-25 14:34 | 47.06773 | 8.91991 | 24415 ft | 315 kts | 354° |
| 2026-04-25 14:35 | 47.08219 | 8.91792 | 24198 ft | 314 kts | 354° |
| 2026-04-25 14:35 | 47.11112 | 8.91392 | 23778 ft | 311 kts | 354° |
| 2026-04-25 14:35 | 47.13259 | 8.91095 | 23393 ft | 310 kts | 354° |
| 2026-04-25 14:35 | 47.15397 | 8.90800 | 23037 ft | 307 kts | 353° |
| 2026-04-25 14:36 | 47.17513 | 8.90507 | 22717 ft | 303 kts | 354° |
| 2026-04-25 14:36 | 47.19601 | 8.90218 | 22426 ft | 299 kts | 354° |
| 2026-04-25 14:36 | 47.21681 | 8.89930 | 22144 ft | 303 kts | 354° |
| 2026-04-25 14:36 | 47.23767 | 8.89640 | 21842 ft | 308 kts | 354° |
| 2026-04-25 14:37 | 47.25952 | 8.89439 | 21471 ft | 313 kts | 3° |
| 2026-04-25 14:37 | 47.28070 | 8.90229 | 21050 ft | 317 kts | 25° |
| 2026-04-25 14:37 | 47.29820 | 8.92108 | 20731 ft | 318 kts | 45° |
| 2026-04-25 14:37 | 47.31112 | 8.94748 | 20458 ft | 316 kts | 55° |
| 2026-04-25 14:38 | 47.32276 | 8.97523 | 20103 ft | 314 kts | 56° |
| 2026-04-25 14:38 | 47.33402 | 9.00282 | 19806 ft | 312 kts | 57° |
| 2026-04-25 14:38 | 47.34503 | 9.03021 | 19486 ft | 311 kts | 57° |
| 2026-04-25 14:38 | 47.35582 | 9.05735 | 19164 ft | 312 kts | 57° |
| 2026-04-25 14:39 | 47.36660 | 9.08465 | 18839 ft | 317 kts | 58° |
| 2026-04-25 14:39 | 47.37817 | 9.11414 | 18491 ft | 320 kts | 58° |
| 2026-04-25 14:39 | 47.38929 | 9.14255 | 18131 ft | 320 kts | 58° |
| 2026-04-25 14:39 | 47.40073 | 9.17055 | 17734 ft | 317 kts | 51° |
| 2026-04-25 14:40 | 47.41690 | 9.19216 | 17304 ft | 313 kts | 27° |
| 2026-04-25 14:40 | 47.43692 | 9.20308 | 17058 ft | 303 kts | 9° |
| 2026-04-25 14:40 | 47.45749 | 9.20857 | 16764 ft | 299 kts | 8° |
| 2026-04-25 14:40 | 47.47794 | 9.21344 | 16457 ft | 297 kts | 7° |
| 2026-04-25 14:41 | 47.49838 | 9.21791 | 16147 ft | 295 kts | 6° |
| 2026-04-25 14:41 | 47.51863 | 9.22214 | 15841 ft | 293 kts | 6° |
| 2026-04-25 14:41 | 47.53875 | 9.22623 | 15538 ft | 291 kts | 6° |
| 2026-04-25 14:41 | 47.55872 | 9.23012 | 15229 ft | 289 kts | 4° |
| 2026-04-25 14:42 | 47.57829 | 9.23084 | 14910 ft | 286 kts | 358° |
| 2026-04-25 14:42 | 47.58498 | 9.23084 | 14816 ft | 285 kts | 358° |
| 2026-04-25 14:42 | 47.61796 | 9.23120 | 14357 ft | 289 kts | 359° |
| 2026-04-25 14:42 | 47.63828 | 9.23160 | 14059 ft | 293 kts | 359° |
| 2026-04-25 14:43 | 47.65873 | 9.23205 | 13727 ft | 294 kts | 359° |
| 2026-04-25 14:43 | 47.67928 | 9.23254 | 13388 ft | 295 kts | 359° |
| 2026-04-25 14:43 | 47.69947 | 9.23304 | 13069 ft | 294 kts | 359° |
| 2026-04-25 14:43 | 47.71994 | 9.23356 | 12756 ft | 293 kts | 359° |
| 2026-04-25 14:44 | 47.74033 | 9.23408 | 12449 ft | 293 kts | 359° |
| 2026-04-25 14:44 | 47.76058 | 9.23461 | 12141 ft | 290 kts | 359° |
| 2026-04-25 14:44 | 47.78058 | 9.23513 | 11882 ft | 286 kts | 359° |
| 2026-04-25 14:44 | 47.80029 | 9.23564 | 11730 ft | 278 kts | 359° |
| 2026-04-25 14:45 | 47.81936 | 9.23830 | 11519 ft | 274 kts | 14° |
| 2026-04-25 14:45 | 47.83600 | 9.25212 | 11205 ft | 278 kts | 41° |
| 2026-04-25 14:45 | 47.84683 | 9.27579 | 10916 ft | 280 kts | 68° |
| 2026-04-25 14:45 | 47.85026 | 9.30429 | 10632 ft | 281 kts | 87° |
| 2026-04-25 14:46 | 47.85106 | 9.33334 | 10312 ft | 280 kts | 86° |
| 2026-04-25 14:46 | 47.85195 | 9.36233 | 10018 ft | 281 kts | 86° |
| 2026-04-25 14:46 | 47.85277 | 9.39139 | 9667 ft | 281 kts | 86° |
| 2026-04-25 14:46 | 47.85353 | 9.42009 | 9353 ft | 280 kts | 86° |
| 2026-04-25 14:47 | 47.85427 | 9.44939 | 9041 ft | 280 kts | 86° |
| 2026-04-25 14:47 | 47.85450 | 9.45872 | 8941 ft | 279 kts | 87° |
| 2026-04-25 14:47 | 47.85545 | 9.49743 | 8509 ft | 279 kts | 87° |
| 2026-04-25 14:47 | 47.85614 | 9.52632 | 8155 ft | 279 kts | 87° |
| 2026-04-25 14:48 | 47.85684 | 9.55511 | 7868 ft | 277 kts | 87° |
| 2026-04-25 14:48 | 47.85751 | 9.58371 | 7569 ft | 276 kts | 87° |
| 2026-04-25 14:48 | 47.85817 | 9.61227 | 7285 ft | 275 kts | 87° |
| 2026-04-25 14:48 | 47.85882 | 9.64069 | 7024 ft | 273 kts | 87° |
| 2026-04-25 14:49 | 47.85965 | 9.67757 | 6840 ft | 265 kts | 87° |
| 2026-04-25 14:49 | 47.86006 | 9.69574 | 6795 ft | 256 kts | 88° |
| 2026-04-25 14:49 | 47.85703 | 9.72121 | 6573 ft | 251 kts | 116° |
| 2026-04-25 14:49 | 47.84593 | 9.74062 | 6291 ft | 246 kts | 146° |
| 2026-04-25 14:50 | 47.83150 | 9.75370 | 6090 ft | 240 kts | 151° |
| 2026-04-25 14:50 | 47.81715 | 9.76602 | 5911 ft | 237 kts | 152° |
| 2026-04-25 14:50 | 47.80257 | 9.77728 | 5692 ft | 235 kts | 166° |
| 2026-04-25 14:50 | 47.78686 | 9.77816 | 5387 ft | 227 kts | 198° |
| 2026-04-25 14:51 | 47.77323 | 9.76685 | 5043 ft | 226 kts | 224° |
| 2026-04-25 14:51 | 47.76328 | 9.74906 | 4664 ft | 224 kts | 238° |
| 2026-04-25 14:51 | 47.75553 | 9.72959 | 4464 ft | 215 kts | 241° |
| 2026-04-25 14:51 | 47.74819 | 9.71034 | 4172 ft | 209 kts | 242° |
| 2026-04-25 14:52 | 47.74160 | 9.69327 | 3937 ft | 197 kts | 242° |
| 2026-04-25 14:52 | 47.73553 | 9.67752 | 3704 ft | 187 kts | 242° |
| 2026-04-25 14:52 | 47.72945 | 9.66185 | 3487 ft | 163 kts | 242° |
| 2026-04-25 14:52 | 47.72589 | 9.65257 | 3398 ft | 147 kts | 242° |
| 2026-04-25 14:53 | 47.71926 | 9.63537 | 3113 ft | 143 kts | 243° |
| 2026-04-25 14:53 | 47.71432 | 9.62257 | 2920 ft | 142 kts | 243° |
| 2026-04-25 14:53 | 47.70943 | 9.60996 | 2747 ft | 142 kts | 242° |
| 2026-04-25 14:53 | 47.70453 | 9.59725 | 2571 ft | 141 kts | 242° |
| 2026-04-25 14:54 | 47.69967 | 9.58463 | 2349 ft | 141 kts | 242° |
| 2026-04-25 14:54 | 47.69482 | 9.57202 | 2175 ft | 140 kts | 240° |
| 2026-04-25 14:54 | 47.69000 | 9.55937 | 1992 ft | 140 kts | 241° |
| 2026-04-25 14:54 | 47.68514 | 9.54683 | 1794 ft | 139 kts | 242° |
| 2026-04-25 14:55 | 47.68028 | 9.53462 | 1604 ft | 137 kts | 241° |
| 2026-04-25 14:55 | 47.67555 | 9.52233 | 1413 ft | 136 kts | 239° |
| 2026-04-25 14:55 | 47.67137 | 9.51164 | 1377 ft | 89 kts | 240° |
| 2026-04-25 14:55 | 47.66932 | 9.50637 | 1375 ft | 43 kts | 240° |
| 2026-04-25 14:56 | 47.66812 | 9.50327 | 1378 ft | 24 kts | 240° |
| 2026-04-25 14:56 | 47.66735 | 9.50155 | 1380 ft | 10 kts | 226° |
| 2026-04-25 14:56 | 47.66738 | 9.50137 | 1381 ft | 1 kts | 341° |
| 2026-04-25 14:56 | 47.66749 | 9.50150 | 1378 ft | 4 kts | 59° |
| 2026-04-25 14:57 | 47.66779 | 9.50237 | 1379 ft | 15 kts | 62° |
| 2026-04-25 14:57 | 47.66844 | 9.50410 | 1378 ft | 22 kts | 59° |
| 2026-04-25 14:57 | 47.66923 | 9.50611 | 1377 ft | 25 kts | 60° |
| 2026-04-25 14:57 | 47.67006 | 9.50822 | 1375 ft | 24 kts | 60° |
| 2026-04-25 14:58 | 47.67090 | 9.51041 | 1377 ft | 23 kts | 60° |
| 2026-04-25 14:58 | 47.67164 | 9.51237 | 1378 ft | 22 kts | 61° |
| 2026-04-25 14:58 | 47.67246 | 9.51444 | 1379 ft | 24 kts | 59° |
| 2026-04-25 14:58 | 47.67336 | 9.51678 | 1376 ft | 26 kts | 60° |
| 2026-04-25 14:59 | 47.67414 | 9.51877 | 1376 ft | 22 kts | 59° |
| 2026-04-25 14:59 | 47.67482 | 9.52051 | 1375 ft | 15 kts | 60° |
| 2026-04-25 14:59 | 47.67524 | 9.52197 | 1376 ft | 17 kts | 98° |
| 2026-04-25 14:59 | 47.67465 | 9.52333 | 1377 ft | 9 kts | 153° |
| 2026-04-25 15:00 | 47.67440 | 9.52350 | 1377 ft | 1 kts | 166° |
| 2026-04-25 15:00 | 47.67426 | 9.52347 | 1376 ft | 3 kts | 198° |
| 2026-04-25 15:00 | 47.67404 | 9.52319 | 1376 ft | 6 kts | 233° |
| 2026-04-25 15:00 | 47.67381 | 9.52294 | 1377 ft | 2 kts | 168° |
| 2026-04-25 15:01 | 47.67357 | 9.52303 | 1375 ft | 4 kts | 171° |
| 2026-04-25 15:01 | 47.67341 | 9.52305 | 1378 ft | 2 kts | 173° |
| 2026-04-25 15:01 | 47.67338 | 9.52306 | 1378 ft | 0 kts | 174° |